sensor_id;sensor_type;location;lat;lon;timestamp;P1;durP1;ratioP1;P2;durP2;ratioP2
39502;SDS011;26970;49.900;10.774;2023-05-24T00:01:29;16.90;;;7.50;;
39502;SDS011;26970;49.900;10.774;2023-05-24T00:03:55;12.10;;;6.07;;
39502;SDS011;26970;49.900;10.774;2023-05-24T00:06:22;12.10;;;5.72;;
39502;SDS011;26970;49.900;10.774;2023-05-24T00:08:50;12.27;;;6.38;;
39502;SDS011;26970;49.900;10.774;2023-05-24T00:11:16;15.05;;;7.03;;
39502;SDS011;26970;49.900;10.774;2023-05-24T00:13:41;13.93;;;6.38;;
39502;SDS011;26970;49.900;10.774;2023-05-24T00:16:07;13.68;;;6.35;;
39502;SDS011;26970;49.900;10.774;2023-05-24T00:18:32;12.00;;;6.47;;
39502;SDS011;26970;49.900;10.774;2023-05-24T00:20:58;18.08;;;6.55;;
39502;SDS011;26970;49.900;10.774;2023-05-24T00:23:24;12.77;;;7.00;;
39502;SDS011;26970;49.900;10.774;2023-05-24T00:25:53;17.63;;;7.40;;
39502;SDS011;26970;49.900;10.774;2023-05-24T00:28:18;14.98;;;7.13;;
39502;SDS011;26970;49.900;10.774;2023-05-24T00:30:44;16.67;;;7.40;;
39502;SDS011;26970;49.900;10.774;2023-05-24T00:33:09;13.85;;;6.53;;
39502;SDS011;26970;49.900;10.774;2023-05-24T00:35:35;13.10;;;6.97;;
39502;SDS011;26970;49.900;10.774;2023-05-24T00:38:00;17.25;;;9.98;;
39502;SDS011;26970;49.900;10.774;2023-05-24T00:40:26;15.30;;;7.35;;
39502;SDS011;26970;49.900;10.774;2023-05-24T00:42:51;12.93;;;8.15;;
39502;SDS011;26970;49.900;10.774;2023-05-24T00:45:17;14.45;;;7.80;;
39502;SDS011;26970;49.900;10.774;2023-05-24T00:47:43;15.00;;;7.65;;
39502;SDS011;26970;49.900;10.774;2023-05-24T00:50:09;14.18;;;7.25;;
39502;SDS011;26970;49.900;10.774;2023-05-24T00:52:38;15.05;;;7.82;;
39502;SDS011;26970;49.900;10.774;2023-05-24T00:55:05;12.60;;;7.05;;
39502;SDS011;26970;49.900;10.774;2023-05-24T00:57:31;18.48;;;7.85;;
39502;SDS011;26970;49.900;10.774;2023-05-24T00:59:57;13.82;;;7.10;;
39502;SDS011;26970;49.900;10.774;2023-05-24T01:02:23;14.50;;;7.53;;
39502;SDS011;26970;49.900;10.774;2023-05-24T01:04:49;15.10;;;8.13;;
39502;SDS011;26970;49.900;10.774;2023-05-24T01:07:17;14.05;;;7.75;;
39502;SDS011;26970;49.900;10.774;2023-05-24T01:15:13;13.15;;;6.72;;
39502;SDS011;26970;49.900;10.774;2023-05-24T01:17:50;16.27;;;7.13;;
39502;SDS011;26970;49.900;10.774;2023-05-24T01:20:29;20.85;;;7.50;;
39502;SDS011;26970;49.900;10.774;2023-05-24T01:28:48;13.85;;;6.38;;
39502;SDS011;26970;49.900;10.774;2023-05-24T01:31:15;15.05;;;7.00;;
39502;SDS011;26970;49.900;10.774;2023-05-24T01:33:42;14.75;;;5.80;;
39502;SDS011;26970;49.900;10.774;2023-05-24T01:36:08;11.48;;;5.72;;
39502;SDS011;26970;49.900;10.774;2023-05-24T01:38:35;13.95;;;6.53;;
39502;SDS011;26970;49.900;10.774;2023-05-24T01:41:07;15.05;;;5.75;;
39502;SDS011;26970;49.900;10.774;2023-05-24T01:43:46;11.98;;;5.75;;
39502;SDS011;26970;49.900;10.774;2023-05-24T01:49:08;11.93;;;5.07;;
39502;SDS011;26970;49.900;10.774;2023-05-24T01:51:48;15.90;;;6.57;;
39502;SDS011;26970;49.900;10.774;2023-05-24T01:54:22;15.25;;;5.78;;
39502;SDS011;26970;49.900;10.774;2023-05-24T01:56:50;12.73;;;5.75;;
39502;SDS011;26970;49.900;10.774;2023-05-24T01:59:17;12.90;;;5.63;;
39502;SDS011;26970;49.900;10.774;2023-05-24T02:01:44;12.52;;;4.88;;
39502;SDS011;26970;49.900;10.774;2023-05-24T02:04:10;13.20;;;6.32;;
39502;SDS011;26970;49.900;10.774;2023-05-24T02:06:36;12.98;;;5.25;;
39502;SDS011;26970;49.900;10.774;2023-05-24T02:09:02;10.80;;;5.63;;
39502;SDS011;26970;49.900;10.774;2023-05-24T02:11:27;15.63;;;6.10;;
39502;SDS011;26970;49.900;10.774;2023-05-24T02:13:53;18.73;;;5.97;;
39502;SDS011;26970;49.900;10.774;2023-05-24T02:16:18;16.77;;;6.20;;
39502;SDS011;26970;49.900;10.774;2023-05-24T02:18:44;12.23;;;5.60;;
39502;SDS011;26970;49.900;10.774;2023-05-24T02:21:11;13.43;;;5.57;;
39502;SDS011;26970;49.900;10.774;2023-05-24T02:23:36;14.90;;;6.20;;
39502;SDS011;26970;49.900;10.774;2023-05-24T02:26:02;12.50;;;5.72;;
39502;SDS011;26970;49.900;10.774;2023-05-24T02:28:28;20.35;;;7.50;;
39502;SDS011;26970;49.900;10.774;2023-05-24T02:30:56;14.60;;;6.00;;
39502;SDS011;26970;49.900;10.774;2023-05-24T02:33:22;13.10;;;5.75;;
39502;SDS011;26970;49.900;10.774;2023-05-24T02:35:49;16.92;;;7.03;;
39502;SDS011;26970;49.900;10.774;2023-05-24T02:38:15;10.50;;;5.63;;
39502;SDS011;26970;49.900;10.774;2023-05-24T02:40:41;18.67;;;5.63;;
39502;SDS011;26970;49.900;10.774;2023-05-24T02:43:06;15.25;;;5.07;;
39502;SDS011;26970;49.900;10.774;2023-05-24T02:45:33;14.40;;;5.47;;
39502;SDS011;26970;49.900;10.774;2023-05-24T02:48:00;13.02;;;5.20;;
39502;SDS011;26970;49.900;10.774;2023-05-24T02:50:26;12.82;;;5.38;;
39502;SDS011;26970;49.900;10.774;2023-05-24T02:52:51;15.45;;;5.18;;
39502;SDS011;26970;49.900;10.774;2023-05-24T02:55:17;14.68;;;5.22;;
39502;SDS011;26970;49.900;10.774;2023-05-24T02:57:42;11.10;;;4.90;;
39502;SDS011;26970;49.900;10.774;2023-05-24T03:00:08;21.90;;;5.60;;
39502;SDS011;26970;49.900;10.774;2023-05-24T03:02:35;12.77;;;5.30;;
39502;SDS011;26970;49.900;10.774;2023-05-24T03:05:05;17.77;;;6.00;;
39502;SDS011;26970;49.900;10.774;2023-05-24T03:07:31;12.77;;;5.53;;
39502;SDS011;26970;49.900;10.774;2023-05-24T03:09:57;15.25;;;4.82;;
39502;SDS011;26970;49.900;10.774;2023-05-24T03:12:22;11.57;;;4.85;;
39502;SDS011;26970;49.900;10.774;2023-05-24T03:14:48;12.02;;;4.85;;
39502;SDS011;26970;49.900;10.774;2023-05-24T03:17:14;14.18;;;4.75;;
39502;SDS011;26970;49.900;10.774;2023-05-24T03:19:39;20.88;;;5.55;;
39502;SDS011;26970;49.900;10.774;2023-05-24T03:22:06;10.13;;;5.20;;
39502;SDS011;26970;49.900;10.774;2023-05-24T03:24:31;14.98;;;4.50;;
39502;SDS011;26970;49.900;10.774;2023-05-24T03:26:58;16.33;;;4.43;;
39502;SDS011;26970;49.900;10.774;2023-05-24T03:29:23;16.20;;;5.10;;
39502;SDS011;26970;49.900;10.774;2023-05-24T03:31:49;15.25;;;5.40;;
39502;SDS011;26970;49.900;10.774;2023-05-24T03:34:14;9.73;;;4.18;;
39502;SDS011;26970;49.900;10.774;2023-05-24T03:36:40;17.35;;;4.88;;
39502;SDS011;26970;49.900;10.774;2023-05-24T03:39:06;15.35;;;5.50;;
39502;SDS011;26970;49.900;10.774;2023-05-24T03:41:31;13.23;;;5.10;;
39502;SDS011;26970;49.900;10.774;2023-05-24T03:43:57;12.60;;;5.40;;
39502;SDS011;26970;49.900;10.774;2023-05-24T03:46:23;15.88;;;4.30;;
39502;SDS011;26970;49.900;10.774;2023-05-24T03:48:49;18.25;;;4.88;;
39502;SDS011;26970;49.900;10.774;2023-05-24T03:51:14;14.35;;;4.80;;
39502;SDS011;26970;49.900;10.774;2023-05-24T03:53:40;14.73;;;4.30;;
39502;SDS011;26970;49.900;10.774;2023-05-24T03:56:05;16.73;;;4.97;;
39502;SDS011;26970;49.900;10.774;2023-05-24T03:58:31;14.40;;;5.45;;
39502;SDS011;26970;49.900;10.774;2023-05-24T04:00:56;14.43;;;5.32;;
39502;SDS011;26970;49.900;10.774;2023-05-24T04:03:22;16.10;;;5.05;;
39502;SDS011;26970;49.900;10.774;2023-05-24T04:05:49;17.90;;;4.55;;
39502;SDS011;26970;49.900;10.774;2023-05-24T04:08:15;12.27;;;4.88;;
39502;SDS011;26970;49.900;10.774;2023-05-24T04:10:41;19.92;;;5.65;;
39502;SDS011;26970;49.900;10.774;2023-05-24T04:13:07;9.65;;;4.43;;
39502;SDS011;26970;49.900;10.774;2023-05-24T04:15:33;15.63;;;5.30;;
39502;SDS011;26970;49.900;10.774;2023-05-24T04:17:58;13.93;;;5.53;;
39502;SDS011;26970;49.900;10.774;2023-05-24T04:20:24;15.90;;;5.10;;
39502;SDS011;26970;49.900;10.774;2023-05-24T04:22:51;17.02;;;4.70;;
39502;SDS011;26970;49.900;10.774;2023-05-24T04:25:17;18.90;;;4.97;;
39502;SDS011;26970;49.900;10.774;2023-05-24T04:27:43;15.45;;;4.85;;
39502;SDS011;26970;49.900;10.774;2023-05-24T04:30:09;19.30;;;5.68;;
39502;SDS011;26970;49.900;10.774;2023-05-24T04:32:35;15.93;;;4.60;;
39502;SDS011;26970;49.900;10.774;2023-05-24T04:35:01;18.77;;;4.45;;
39502;SDS011;26970;49.900;10.774;2023-05-24T04:37:28;20.08;;;4.70;;
39502;SDS011;26970;49.900;10.774;2023-05-24T04:39:55;15.75;;;4.43;;
39502;SDS011;26970;49.900;10.774;2023-05-24T04:42:21;14.43;;;4.75;;
39502;SDS011;26970;49.900;10.774;2023-05-24T04:44:47;11.07;;;4.45;;
39502;SDS011;26970;49.900;10.774;2023-05-24T04:47:12;13.40;;;4.32;;
39502;SDS011;26970;49.900;10.774;2023-05-24T04:49:38;14.23;;;4.55;;
39502;SDS011;26970;49.900;10.774;2023-05-24T04:52:04;11.93;;;4.10;;
39502;SDS011;26970;49.900;10.774;2023-05-24T04:54:30;15.05;;;4.18;;
39502;SDS011;26970;49.900;10.774;2023-05-24T04:56:56;13.10;;;5.22;;
39502;SDS011;26970;49.900;10.774;2023-05-24T04:59:22;16.77;;;5.10;;
39502;SDS011;26970;49.900;10.774;2023-05-24T05:01:47;15.85;;;4.53;;
39502;SDS011;26970;49.900;10.774;2023-05-24T05:04:13;16.17;;;4.10;;
39502;SDS011;26970;49.900;10.774;2023-05-24T05:06:39;11.45;;;4.25;;
39502;SDS011;26970;49.900;10.774;2023-05-24T05:09:05;13.65;;;3.22;;
39502;SDS011;26970;49.900;10.774;2023-05-24T05:11:34;15.02;;;4.15;;
39502;SDS011;26970;49.900;10.774;2023-05-24T05:14:00;19.13;;;4.70;;
39502;SDS011;26970;49.900;10.774;2023-05-24T05:16:26;17.20;;;3.63;;
39502;SDS011;26970;49.900;10.774;2023-05-24T05:18:51;12.20;;;3.53;;
39502;SDS011;26970;49.900;10.774;2023-05-24T05:21:17;11.35;;;4.40;;
39502;SDS011;26970;49.900;10.774;2023-05-24T05:23:43;16.25;;;3.58;;
39502;SDS011;26970;49.900;10.774;2023-05-24T05:26:10;19.13;;;5.70;;
39502;SDS011;26970;49.900;10.774;2023-05-24T05:28:35;13.77;;;4.50;;
39502;SDS011;26970;49.900;10.774;2023-05-24T05:31:01;11.00;;;3.53;;
39502;SDS011;26970;49.900;10.774;2023-05-24T05:33:27;11.90;;;3.53;;
39502;SDS011;26970;49.900;10.774;2023-05-24T05:35:54;13.80;;;4.63;;
39502;SDS011;26970;49.900;10.774;2023-05-24T05:38:20;14.43;;;3.80;;
39502;SDS011;26970;49.900;10.774;2023-05-24T05:40:45;12.57;;;3.88;;
39502;SDS011;26970;49.900;10.774;2023-05-24T05:43:11;16.55;;;4.50;;
39502;SDS011;26970;49.900;10.774;2023-05-24T05:45:36;14.85;;;4.45;;
39502;SDS011;26970;49.900;10.774;2023-05-24T05:48:02;15.73;;;3.90;;
39502;SDS011;26970;49.900;10.774;2023-05-24T05:50:27;12.68;;;3.65;;
39502;SDS011;26970;49.900;10.774;2023-05-24T05:52:53;18.23;;;3.65;;
39502;SDS011;26970;49.900;10.774;2023-05-24T05:55:19;15.00;;;4.82;;
39502;SDS011;26970;49.900;10.774;2023-05-24T05:57:44;14.60;;;4.43;;
39502;SDS011;26970;49.900;10.774;2023-05-24T06:00:10;20.55;;;3.70;;
39502;SDS011;26970;49.900;10.774;2023-05-24T06:02:36;15.63;;;4.50;;
39502;SDS011;26970;49.900;10.774;2023-05-24T06:05:01;13.73;;;3.75;;
39502;SDS011;26970;49.900;10.774;2023-05-24T06:07:27;12.45;;;3.70;;
39502;SDS011;26970;49.900;10.774;2023-05-24T06:09:53;12.82;;;4.10;;
39502;SDS011;26970;49.900;10.774;2023-05-24T06:12:18;13.15;;;4.05;;
39502;SDS011;26970;49.900;10.774;2023-05-24T06:14:44;13.27;;;3.78;;
39502;SDS011;26970;49.900;10.774;2023-05-24T06:17:12;10.65;;;3.95;;
39502;SDS011;26970;49.900;10.774;2023-05-24T06:19:37;10.52;;;3.53;;
39502;SDS011;26970;49.900;10.774;2023-05-24T06:22:03;15.20;;;3.90;;
39502;SDS011;26970;49.900;10.774;2023-05-24T06:24:28;11.93;;;3.38;;
39502;SDS011;26970;49.900;10.774;2023-05-24T06:26:54;19.73;;;4.65;;
39502;SDS011;26970;49.900;10.774;2023-05-24T06:29:20;10.48;;;3.33;;
39502;SDS011;26970;49.900;10.774;2023-05-24T06:31:45;15.95;;;4.13;;
39502;SDS011;26970;49.900;10.774;2023-05-24T06:34:12;10.25;;;3.60;;
39502;SDS011;26970;49.900;10.774;2023-05-24T06:36:40;14.02;;;3.72;;
39502;SDS011;26970;49.900;10.774;2023-05-24T06:39:07;8.93;;;2.75;;
39502;SDS011;26970;49.900;10.774;2023-05-24T06:41:34;8.88;;;2.92;;
39502;SDS011;26970;49.900;10.774;2023-05-24T06:44:00;16.10;;;3.55;;
39502;SDS011;26970;49.900;10.774;2023-05-24T06:46:25;11.40;;;3.55;;
39502;SDS011;26970;49.900;10.774;2023-05-24T06:48:51;11.93;;;3.30;;
39502;SDS011;26970;49.900;10.774;2023-05-24T06:51:16;10.40;;;2.95;;
39502;SDS011;26970;49.900;10.774;2023-05-24T06:53:42;11.18;;;3.80;;
39502;SDS011;26970;49.900;10.774;2023-05-24T06:56:08;16.98;;;4.38;;
39502;SDS011;26970;49.900;10.774;2023-05-24T06:58:34;15.55;;;3.67;;
39502;SDS011;26970;49.900;10.774;2023-05-24T07:01:00;9.38;;;3.67;;
39502;SDS011;26970;49.900;10.774;2023-05-24T07:03:26;8.10;;;3.00;;
39502;SDS011;26970;49.900;10.774;2023-05-24T07:05:52;13.48;;;3.75;;
39502;SDS011;26970;49.900;10.774;2023-05-24T07:08:17;12.65;;;3.40;;
39502;SDS011;26970;49.900;10.774;2023-05-24T07:10:43;10.95;;;3.10;;
39502;SDS011;26970;49.900;10.774;2023-05-24T07:13:09;13.13;;;2.83;;
39502;SDS011;26970;49.900;10.774;2023-05-24T07:15:37;16.15;;;3.10;;
39502;SDS011;26970;49.900;10.774;2023-05-24T07:18:06;12.95;;;4.25;;
39502;SDS011;26970;49.900;10.774;2023-05-24T07:20:31;10.52;;;2.80;;
39502;SDS011;26970;49.900;10.774;2023-05-24T07:22:57;11.32;;;3.10;;
39502;SDS011;26970;49.900;10.774;2023-05-24T07:25:25;9.75;;;2.88;;
39502;SDS011;26970;49.900;10.774;2023-05-24T07:27:50;11.25;;;3.00;;
39502;SDS011;26970;49.900;10.774;2023-05-24T07:30:16;12.70;;;3.80;;
39502;SDS011;26970;49.900;10.774;2023-05-24T07:32:42;8.80;;;2.47;;
39502;SDS011;26970;49.900;10.774;2023-05-24T07:35:09;10.52;;;3.38;;
39502;SDS011;26970;49.900;10.774;2023-05-24T07:37:37;8.68;;;3.55;;
39502;SDS011;26970;49.900;10.774;2023-05-24T07:40:03;9.13;;;2.83;;
39502;SDS011;26970;49.900;10.774;2023-05-24T07:42:29;11.43;;;3.75;;
39502;SDS011;26970;49.900;10.774;2023-05-24T07:44:55;16.50;;;4.07;;
39502;SDS011;26970;49.900;10.774;2023-05-24T07:47:21;11.50;;;3.38;;
39502;SDS011;26970;49.900;10.774;2023-05-24T07:49:46;10.32;;;4.00;;
39502;SDS011;26970;49.900;10.774;2023-05-24T07:52:12;10.07;;;2.83;;
39502;SDS011;26970;49.900;10.774;2023-05-24T07:54:38;7.32;;;2.90;;
39502;SDS011;26970;49.900;10.774;2023-05-24T07:57:04;9.65;;;2.95;;
39502;SDS011;26970;49.900;10.774;2023-05-24T07:59:32;14.50;;;3.25;;
39502;SDS011;26970;49.900;10.774;2023-05-24T08:01:57;14.65;;;3.00;;
39502;SDS011;26970;49.900;10.774;2023-05-24T08:04:27;9.48;;;2.45;;
39502;SDS011;26970;49.900;10.774;2023-05-24T08:06:53;12.45;;;3.30;;
39502;SDS011;26970;49.900;10.774;2023-05-24T08:09:19;7.03;;;3.05;;
39502;SDS011;26970;49.900;10.774;2023-05-24T08:11:46;13.23;;;3.55;;
39502;SDS011;26970;49.900;10.774;2023-05-24T08:14:12;10.02;;;3.33;;
39502;SDS011;26970;49.900;10.774;2023-05-24T08:16:37;19.00;;;4.10;;
39502;SDS011;26970;49.900;10.774;2023-05-24T08:19:03;22.98;;;5.57;;
39502;SDS011;26970;49.900;10.774;2023-05-24T08:21:28;12.75;;;3.45;;
39502;SDS011;26970;49.900;10.774;2023-05-24T08:23:54;12.63;;;3.40;;
39502;SDS011;26970;49.900;10.774;2023-05-24T08:26:20;14.25;;;4.00;;
39502;SDS011;26970;49.900;10.774;2023-05-24T08:28:46;11.13;;;3.13;;
39502;SDS011;26970;49.900;10.774;2023-05-24T08:31:12;9.82;;;2.58;;
39502;SDS011;26970;49.900;10.774;2023-05-24T08:33:37;11.98;;;3.40;;
39502;SDS011;26970;49.900;10.774;2023-05-24T08:36:03;13.60;;;3.38;;
39502;SDS011;26970;49.900;10.774;2023-05-24T08:38:28;11.77;;;2.75;;
39502;SDS011;26970;49.900;10.774;2023-05-24T08:40:54;7.22;;;3.22;;
39502;SDS011;26970;49.900;10.774;2023-05-24T08:43:20;10.48;;;3.00;;
39502;SDS011;26970;49.900;10.774;2023-05-24T08:45:46;12.80;;;3.75;;
39502;SDS011;26970;49.900;10.774;2023-05-24T08:48:13;20.75;;;4.57;;
39502;SDS011;26970;49.900;10.774;2023-05-24T08:50:39;10.02;;;2.72;;
39502;SDS011;26970;49.900;10.774;2023-05-24T08:53:06;15.93;;;2.92;;
39502;SDS011;26970;49.900;10.774;2023-05-24T08:55:35;14.18;;;3.40;;
39502;SDS011;26970;49.900;10.774;2023-05-24T08:58:01;10.30;;;2.75;;
39502;SDS011;26970;49.900;10.774;2023-05-24T09:00:28;12.90;;;2.90;;
39502;SDS011;26970;49.900;10.774;2023-05-24T09:02:55;11.30;;;2.97;;
39502;SDS011;26970;49.900;10.774;2023-05-24T09:05:21;12.15;;;3.40;;
39502;SDS011;26970;49.900;10.774;2023-05-24T09:07:48;9.05;;;3.03;;
39502;SDS011;26970;49.900;10.774;2023-05-24T09:10:15;9.20;;;2.83;;
39502;SDS011;26970;49.900;10.774;2023-05-24T09:12:44;10.75;;;2.78;;
39502;SDS011;26970;49.900;10.774;2023-05-24T09:15:12;12.73;;;3.63;;
39502;SDS011;26970;49.900;10.774;2023-05-24T09:17:38;12.27;;;3.00;;
39502;SDS011;26970;49.900;10.774;2023-05-24T09:20:07;12.02;;;3.25;;
39502;SDS011;26970;49.900;10.774;2023-05-24T09:22:35;10.93;;;3.50;;
39502;SDS011;26970;49.900;10.774;2023-05-24T09:25:04;9.52;;;3.20;;
39502;SDS011;26970;49.900;10.774;2023-05-24T09:27:30;9.80;;;3.15;;
39502;SDS011;26970;49.900;10.774;2023-05-24T09:29:58;11.20;;;3.60;;
39502;SDS011;26970;49.900;10.774;2023-05-24T09:32:24;16.65;;;3.30;;
39502;SDS011;26970;49.900;10.774;2023-05-24T09:34:50;11.05;;;2.90;;
39502;SDS011;26970;49.900;10.774;2023-05-24T09:37:21;10.15;;;3.10;;
39502;SDS011;26970;49.900;10.774;2023-05-24T09:39:51;15.30;;;3.50;;
39502;SDS011;26970;49.900;10.774;2023-05-24T09:42:18;12.05;;;3.00;;
39502;SDS011;26970;49.900;10.774;2023-05-24T09:44:48;8.68;;;3.28;;
39502;SDS011;26970;49.900;10.774;2023-05-24T09:47:36;9.60;;;3.03;;
39502;SDS011;26970;49.900;10.774;2023-05-24T09:50:04;11.77;;;3.78;;
39502;SDS011;26970;49.900;10.774;2023-05-24T09:52:37;11.20;;;3.20;;
39502;SDS011;26970;49.900;10.774;2023-05-24T09:55:36;13.45;;;3.88;;
39502;SDS011;26970;49.900;10.774;2023-05-24T09:58:06;11.15;;;2.90;;
39502;SDS011;26970;49.900;10.774;2023-05-24T10:00:37;7.68;;;2.80;;
39502;SDS011;26970;49.900;10.774;2023-05-24T10:03:06;12.20;;;3.55;;
39502;SDS011;26970;49.900;10.774;2023-05-24T10:05:34;8.07;;;2.92;;
39502;SDS011;26970;49.900;10.774;2023-05-24T10:08:01;6.07;;;2.78;;
39502;SDS011;26970;49.900;10.774;2023-05-24T10:10:29;8.82;;;2.65;;
39502;SDS011;26970;49.900;10.774;2023-05-24T10:12:57;11.88;;;3.58;;
39502;SDS011;26970;49.900;10.774;2023-05-24T10:15:24;10.82;;;2.90;;
39502;SDS011;26970;49.900;10.774;2023-05-24T10:17:51;9.50;;;2.80;;
39502;SDS011;26970;49.900;10.774;2023-05-24T10:20:16;9.07;;;2.78;;
39502;SDS011;26970;49.900;10.774;2023-05-24T10:22:43;10.95;;;2.63;;
39502;SDS011;26970;49.900;10.774;2023-05-24T10:25:12;10.65;;;3.15;;
39502;SDS011;26970;49.900;10.774;2023-05-24T10:27:43;8.82;;;3.30;;
39502;SDS011;26970;49.900;10.774;2023-05-24T10:30:13;9.88;;;3.42;;
39502;SDS011;26970;49.900;10.774;2023-05-24T10:33:02;8.80;;;2.90;;
39502;SDS011;26970;49.900;10.774;2023-05-24T10:35:30;15.35;;;3.88;;
39502;SDS011;26970;49.900;10.774;2023-05-24T10:37:57;11.80;;;3.00;;
39502;SDS011;26970;49.900;10.774;2023-05-24T10:40:23;10.00;;;3.22;;
39502;SDS011;26970;49.900;10.774;2023-05-24T10:42:50;8.82;;;2.85;;
39502;SDS011;26970;49.900;10.774;2023-05-24T10:47:50;8.68;;;2.90;;
39502;SDS011;26970;49.900;10.774;2023-05-24T10:50:16;11.85;;;3.13;;
39502;SDS011;26970;49.900;10.774;2023-05-24T10:52:43;7.55;;;2.90;;
39502;SDS011;26970;49.900;10.774;2023-05-24T10:55:09;14.55;;;3.20;;
39502;SDS011;26970;49.900;10.774;2023-05-24T10:57:36;8.68;;;2.88;;
39502;SDS011;26970;49.900;10.774;2023-05-24T11:02:49;10.80;;;2.50;;
39502;SDS011;26970;49.900;10.774;2023-05-24T11:05:31;10.95;;;3.40;;
39502;SDS011;26970;49.900;10.774;2023-05-24T11:08:00;10.00;;;2.83;;
39502;SDS011;26970;49.900;10.774;2023-05-24T11:10:31;10.40;;;3.38;;
39502;SDS011;26970;49.900;10.774;2023-05-24T11:13:00;12.00;;;2.97;;
39502;SDS011;26970;49.900;10.774;2023-05-24T11:15:26;10.15;;;2.60;;
39502;SDS011;26970;49.900;10.774;2023-05-24T11:20:36;8.70;;;3.67;;
39502;SDS011;26970;49.900;10.774;2023-05-24T11:23:02;10.48;;;3.05;;
39502;SDS011;26970;49.900;10.774;2023-05-24T11:25:28;11.40;;;3.65;;
39502;SDS011;26970;49.900;10.774;2023-05-24T11:27:57;13.10;;;3.38;;
39502;SDS011;26970;49.900;10.774;2023-05-24T11:30:23;11.90;;;3.20;;
39502;SDS011;26970;49.900;10.774;2023-05-24T11:32:50;11.68;;;3.25;;
39502;SDS011;26970;49.900;10.774;2023-05-24T11:35:17;12.20;;;3.33;;
39502;SDS011;26970;49.900;10.774;2023-05-24T11:37:43;12.35;;;3.38;;
39502;SDS011;26970;49.900;10.774;2023-05-24T11:40:09;13.90;;;3.47;;
39502;SDS011;26970;49.900;10.774;2023-05-24T11:42:36;11.68;;;3.40;;
39502;SDS011;26970;49.900;10.774;2023-05-24T11:45:03;9.38;;;2.83;;
39502;SDS011;26970;49.900;10.774;2023-05-24T11:47:34;11.80;;;3.22;;
39502;SDS011;26970;49.900;10.774;2023-05-24T11:50:00;13.32;;;3.40;;
39502;SDS011;26970;49.900;10.774;2023-05-24T11:52:26;13.80;;;2.67;;
39502;SDS011;26970;49.900;10.774;2023-05-24T11:54:51;11.23;;;2.72;;
39502;SDS011;26970;49.900;10.774;2023-05-24T11:57:19;16.20;;;4.60;;
39502;SDS011;26970;49.900;10.774;2023-05-24T11:59:54;10.18;;;3.05;;
39502;SDS011;26970;49.900;10.774;2023-05-24T12:02:22;13.93;;;3.42;;
39502;SDS011;26970;49.900;10.774;2023-05-24T12:04:47;11.18;;;3.50;;
39502;SDS011;26970;49.900;10.774;2023-05-24T12:07:13;10.80;;;3.22;;
39502;SDS011;26970;49.900;10.774;2023-05-24T12:09:40;9.82;;;2.72;;
39502;SDS011;26970;49.900;10.774;2023-05-24T12:12:06;15.60;;;3.35;;
39502;SDS011;26970;49.900;10.774;2023-05-24T12:14:32;9.75;;;3.13;;
39502;SDS011;26970;49.900;10.774;2023-05-24T12:16:59;11.15;;;3.55;;
39502;SDS011;26970;49.900;10.774;2023-05-24T12:19:28;7.90;;;3.03;;
39502;SDS011;26970;49.900;10.774;2023-05-24T12:22:03;10.10;;;3.00;;
39502;SDS011;26970;49.900;10.774;2023-05-24T12:24:33;8.35;;;3.00;;
39502;SDS011;26970;49.900;10.774;2023-05-24T12:27:00;12.30;;;3.20;;
39502;SDS011;26970;49.900;10.774;2023-05-24T12:29:36;9.40;;;2.67;;
39502;SDS011;26970;49.900;10.774;2023-05-24T12:32:04;13.23;;;3.15;;
39502;SDS011;26970;49.900;10.774;2023-05-24T12:34:35;15.70;;;3.42;;
39502;SDS011;26970;49.900;10.774;2023-05-24T12:37:01;7.55;;;2.90;;
39502;SDS011;26970;49.900;10.774;2023-05-24T12:39:27;11.13;;;3.00;;
39502;SDS011;26970;49.900;10.774;2023-05-24T12:41:59;11.68;;;2.72;;
39502;SDS011;26970;49.900;10.774;2023-05-24T12:44:29;11.20;;;3.38;;
39502;SDS011;26970;49.900;10.774;2023-05-24T12:46:56;12.32;;;3.03;;
39502;SDS011;26970;49.900;10.774;2023-05-24T12:49:25;12.73;;;3.33;;
39502;SDS011;26970;49.900;10.774;2023-05-24T12:51:52;8.13;;;2.75;;
39502;SDS011;26970;49.900;10.774;2023-05-24T12:54:21;12.50;;;3.35;;
39502;SDS011;26970;49.900;10.774;2023-05-24T12:56:47;11.60;;;3.92;;
39502;SDS011;26970;49.900;10.774;2023-05-24T12:59:13;10.25;;;3.72;;
39502;SDS011;26970;49.900;10.774;2023-05-24T13:01:39;17.02;;;3.63;;
39502;SDS011;26970;49.900;10.774;2023-05-24T13:04:05;10.70;;;2.90;;
39502;SDS011;26970;49.900;10.774;2023-05-24T13:06:30;13.73;;;3.40;;
39502;SDS011;26970;49.900;10.774;2023-05-24T13:08:56;9.68;;;2.88;;
39502;SDS011;26970;49.900;10.774;2023-05-24T13:11:22;12.90;;;3.42;;
39502;SDS011;26970;49.900;10.774;2023-05-24T13:13:49;12.55;;;3.85;;
39502;SDS011;26970;49.900;10.774;2023-05-24T13:16:15;10.25;;;3.50;;
39502;SDS011;26970;49.900;10.774;2023-05-24T13:18:41;6.90;;;2.40;;
39502;SDS011;26970;49.900;10.774;2023-05-24T13:21:06;12.73;;;3.03;;
39502;SDS011;26970;49.900;10.774;2023-05-24T13:23:33;10.30;;;3.67;;
39502;SDS011;26970;49.900;10.774;2023-05-24T13:26:02;14.00;;;2.90;;
39502;SDS011;26970;49.900;10.774;2023-05-24T13:28:28;8.00;;;2.97;;
39502;SDS011;26970;49.900;10.774;2023-05-24T13:30:55;7.05;;;2.72;;
39502;SDS011;26970;49.900;10.774;2023-05-24T13:33:20;9.75;;;3.20;;
39502;SDS011;26970;49.900;10.774;2023-05-24T13:35:46;9.82;;;3.05;;
39502;SDS011;26970;49.900;10.774;2023-05-24T13:38:11;10.65;;;3.03;;
39502;SDS011;26970;49.900;10.774;2023-05-24T13:40:38;11.65;;;3.60;;
39502;SDS011;26970;49.900;10.774;2023-05-24T13:43:04;8.98;;;3.35;;
39502;SDS011;26970;49.900;10.774;2023-05-24T13:45:29;9.40;;;3.10;;
39502;SDS011;26970;49.900;10.774;2023-05-24T13:47:57;15.73;;;3.50;;
39502;SDS011;26970;49.900;10.774;2023-05-24T13:50:27;12.38;;;3.20;;
39502;SDS011;26970;49.900;10.774;2023-05-24T13:53:00;11.13;;;3.10;;
39502;SDS011;26970;49.900;10.774;2023-05-24T13:55:30;11.82;;;3.90;;
39502;SDS011;26970;49.900;10.774;2023-05-24T13:57:58;10.77;;;2.72;;
39502;SDS011;26970;49.900;10.774;2023-05-24T14:00:25;10.60;;;3.05;;
39502;SDS011;26970;49.900;10.774;2023-05-24T14:02:51;11.60;;;3.25;;
39502;SDS011;26970;49.900;10.774;2023-05-24T14:05:17;11.65;;;3.17;;
39502;SDS011;26970;49.900;10.774;2023-05-24T14:07:44;9.63;;;3.67;;
39502;SDS011;26970;49.900;10.774;2023-05-24T14:10:10;11.73;;;3.65;;
39502;SDS011;26970;49.900;10.774;2023-05-24T14:12:35;9.80;;;3.20;;
39502;SDS011;26970;49.900;10.774;2023-05-24T14:15:01;13.43;;;3.53;;
39502;SDS011;26970;49.900;10.774;2023-05-24T14:17:28;11.27;;;2.60;;
39502;SDS011;26970;49.900;10.774;2023-05-24T14:19:54;10.30;;;3.20;;
39502;SDS011;26970;49.900;10.774;2023-05-24T14:22:20;8.60;;;3.15;;
39502;SDS011;26970;49.900;10.774;2023-05-24T14:24:47;7.60;;;2.63;;
39502;SDS011;26970;49.900;10.774;2023-05-24T14:27:12;9.10;;;2.45;;
39502;SDS011;26970;49.900;10.774;2023-05-24T14:29:38;8.43;;;2.80;;
39502;SDS011;26970;49.900;10.774;2023-05-24T14:32:03;6.95;;;2.42;;
39502;SDS011;26970;49.900;10.774;2023-05-24T14:34:29;8.95;;;2.40;;
39502;SDS011;26970;49.900;10.774;2023-05-24T14:36:54;7.40;;;2.80;;
39502;SDS011;26970;49.900;10.774;2023-05-24T14:39:20;9.60;;;3.13;;
39502;SDS011;26970;49.900;10.774;2023-05-24T14:41:45;12.43;;;3.13;;
39502;SDS011;26970;49.900;10.774;2023-05-24T14:44:11;9.35;;;2.60;;